Tasley, VA (23441)

11:49 PM EDT on September 01, 2014 (GMT -0400)
VADOT Tasley | Change Station
CLOSE
Current Station
Personal Weather Station
Location: Accomac, VA
Elevation: 59 ft
Nearby Weather Stations

Elev 59 ft 37.70 °N, 75.71 °W | Updated 42 minutes ago

Clear
Clear
80 °F
Feels Like 86 °F
N
3
Wind Variable Wind from South
Gusts 4.0 mph

Today
High -- | Low -- °F
--% Chance of Precip.
Yesterday
High -- | Low -- °F
Precip. -- in
6:33 AM 7:32 PM
Waxing Crescent, 47% visible
Pressure 29.98 in
Visibility 10.0 miles
Clouds Clear
Heat Index 86 °F
Dew Point 77 °F
Humidity 92%
Rainfall -999.00 in
Snow Depth Not available.
UV 0 out of 12
Pollen 8.80 out of 12
Air Quality Not available.
Flu Activity Not available.
METAR KWAL 020254Z AUTO 23007KT 10SM CLR 26/24 A2999 RMK AO2 SLP152 T02610244 51003

More Conditions Fewer Conditions

Pressure 29.98 in
Visibility 10.0 miles
Clouds Clear
Heat Index 86 °F
Dew Point 77 °F
Humidity 92%
Rainfall -999.00 in
Snow Depth Not available.
UV 0 out of 12
Pollen 8.80 out of 12
Air Quality Not available.
Flu Activity Not available.
METAR KWAL 020254Z AUTO 23007KT 10SM CLR 26/24 A2999 RMK AO2 SLP152 T02610244 51003

More Conditions Fewer Conditions

10-Day Weather Forecast

Almanac

Astronomy

Sep. 01, 2014 Rise Set
Actual Time 6:33 AM EDT 7:32 PM EDT
Civil Twilight 6:06 AM EDT 7:59 PM EDT
Nautical Twilight 5:34 AM EDT 8:30 PM EDT
Astronomical Twilight 5:01 AM EDT 9:03 PM EDT
Moon 1:09 PM EDT (9/1) 11:39 PM EDT (9/1)
Length of Visible Light 13h 52m
Length of Day
12h 59m
Tomorrow will be 2m 20s shorter.
Waxing Crescent, 47% of the Moon is Illuminated
Today
Waxing Crescent
Sep 2
First Quarter
Sep 8
Full
Sep 15
Last Quarter
Sep 24
New

Today's Extremes

State Highs State Lows

Community

WunderPhotos

Upload Photos

1,749,557 photos uploaded!

WunderBlogs® & News

Nearby

Snow Depth

Station Depth Elevation
No new snow has been reported.

Earthquake Activity

City Distance Mag. Time & Date
No recent earthquake activity has been reported nearby.
Minimum magnitude displayed is 2.5.

Coastal Water Temperatures

Place Temperature
Wachapreague, VA 82.9 °F
Lewisetta, VA 82.0 °F
Bishops Head, MD 82.0 °F

Nearby Weather Stations